createdAt,value
2017-10-02T00:00:09.609Z,11.40
2017-10-02T00:02:37.263Z,11.40
2017-10-02T00:05:05.002Z,11.40
2017-10-02T00:07:32.748Z,11.40
2017-10-02T00:10:00.398Z,11.50
2017-10-02T00:12:28.070Z,11.50
2017-10-02T00:14:56.239Z,11.60
2017-10-02T00:17:23.886Z,11.60
2017-10-02T00:19:51.542Z,11.60
2017-10-02T00:22:19.337Z,11.60
2017-10-02T00:24:47.084Z,11.60
2017-10-02T00:27:14.831Z,11.50
2017-10-02T00:29:42.555Z,11.50
2017-10-02T00:32:10.228Z,11.50
2017-10-02T00:34:37.971Z,11.60
2017-10-02T00:37:05.699Z,11.60
2017-10-02T00:39:33.367Z,11.60
2017-10-02T00:42:01.110Z,11.60
2017-10-02T00:44:28.811Z,11.60
2017-10-02T00:46:56.463Z,11.60
2017-10-02T00:49:24.115Z,11.70
2017-10-02T00:51:51.895Z,11.70
2017-10-02T00:54:19.566Z,11.60
2017-10-02T00:56:47.705Z,11.80
2017-10-02T00:59:15.547Z,11.80
2017-10-02T01:01:43.296Z,11.70
2017-10-02T01:04:11.042Z,11.60
2017-10-02T01:06:38.867Z,11.60
2017-10-02T01:09:06.638Z,11.50
2017-10-02T01:11:34.386Z,11.40
2017-10-02T01:14:02.132Z,11.30
2017-10-02T01:16:29.880Z,11.20
2017-10-02T01:18:57.627Z,11.20
2017-10-02T01:21:25.478Z,11.10
2017-10-02T01:23:53.227Z,11.00
2017-10-02T01:26:20.974Z,10.90
2017-10-02T01:28:48.721Z,10.80
2017-10-02T01:31:16.469Z,10.80
2017-10-02T01:33:44.216Z,10.70
2017-10-02T01:36:12.065Z,10.60
2017-10-02T01:38:39.710Z,10.50
2017-10-02T01:41:07.457Z,10.50
2017-10-02T01:43:35.204Z,10.40
2017-10-02T01:46:02.871Z,10.30
2017-10-02T01:48:30.519Z,10.20
2017-10-02T01:50:58.342Z,10.20
2017-10-02T01:53:26.092Z,10.20
2017-10-02T01:55:53.841Z,10.20
2017-10-02T01:58:21.588Z,10.20
2017-10-02T02:00:49.539Z,10.20
2017-10-02T02:03:17.287Z,10.20
2017-10-02T02:05:45.290Z,10.20
2017-10-02T02:08:12.930Z,10.20
2017-10-02T02:10:40.630Z,10.20
2017-10-02T02:13:08.378Z,10.20
2017-10-02T02:15:36.030Z,10.20
2017-10-02T02:18:03.770Z,10.20
2017-10-02T02:20:31.482Z,10.10
2017-10-02T02:22:59.143Z,10.10
2017-10-02T02:25:26.910Z,10.10
2017-10-02T02:27:54.627Z,10.20
2017-10-02T02:30:22.304Z,10.20
2017-10-02T02:32:50.052Z,10.30
2017-10-02T02:35:17.798Z,10.30
2017-10-02T02:37:45.454Z,10.30
2017-10-02T02:40:13.190Z,10.30
2017-10-02T02:42:40.939Z,10.20
2017-10-02T02:45:08.685Z,10.00
2017-10-02T02:47:36.339Z,9.90
2017-10-02T02:50:04.179Z,9.90
2017-10-02T02:52:31.926Z,9.80
2017-10-02T02:54:59.582Z,9.80
2017-10-02T02:57:27.292Z,9.80
2017-10-02T02:59:54.966Z,9.90
2017-10-02T03:02:22.619Z,9.90
2017-10-02T03:04:50.431Z,10.00
2017-10-02T03:07:18.087Z,10.10
2017-10-02T03:09:45.750Z,10.00
2017-10-02T03:12:13.467Z,10.00
2017-10-02T03:14:41.114Z,10.00
2017-10-02T03:17:08.889Z,10.00
2017-10-02T03:19:36.739Z,10.10
2017-10-02T03:22:04.402Z,10.10
2017-10-02T03:24:32.450Z,10.20
2017-10-02T03:27:00.146Z,10.20
2017-10-02T03:29:27.809Z,10.30
2017-10-02T03:31:55.477Z,10.30
2017-10-02T03:34:23.225Z,10.50
2017-10-02T03:36:50.972Z,10.40
2017-10-02T03:39:18.627Z,10.40
2017-10-02T03:41:46.327Z,10.50
2017-10-02T03:44:13.987Z,10.60
2017-10-02T03:46:41.639Z,10.50
2017-10-02T03:49:09.413Z,10.30
2017-10-02T03:51:37.070Z,10.20
2017-10-02T03:54:05.202Z,10.10
2017-10-02T03:56:32.902Z,10.10
2017-10-02T03:59:00.563Z,10.20
2017-10-02T04:01:28.220Z,10.20
2017-10-02T04:03:56.190Z,10.20
2017-10-02T04:06:23.941Z,10.20
2017-10-02T04:08:51.594Z,10.30
2017-10-02T04:11:19.333Z,10.30
2017-10-02T04:13:47.042Z,10.30
2017-10-02T04:16:14.746Z,10.50
2017-10-02T04:18:42.946Z,10.40
2017-10-02T04:21:10.590Z,10.40
2017-10-02T04:23:38.274Z,10.30
2017-10-02T04:26:06.021Z,10.30
2017-10-02T04:28:33.678Z,10.50
2017-10-02T04:31:01.414Z,10.40
2017-10-02T04:33:29.131Z,10.40
2017-10-02T04:35:56.804Z,10.50
2017-10-02T04:38:24.451Z,10.50
2017-10-02T04:40:52.199Z,10.50
2017-10-02T04:43:19.858Z,10.50
2017-10-02T04:45:47.591Z,10.50
2017-10-02T04:48:15.441Z,10.50
2017-10-02T04:50:43.188Z,10.50
2017-10-02T04:53:10.935Z,10.50
2017-10-02T04:55:38.683Z,10.40
2017-10-02T04:58:06.335Z,10.30
2017-10-02T05:00:34.074Z,10.20
2017-10-02T05:03:01.782Z,10.20
2017-10-02T05:05:29.465Z,10.30
2017-10-02T05:07:57.134Z,10.20
2017-10-02T05:10:25.239Z,10.20
2017-10-02T05:12:52.896Z,10.20
2017-10-02T05:15:20.663Z,10.20
2017-10-02T05:17:48.373Z,10.20
2017-10-02T05:20:16.054Z,10.20
2017-10-02T05:22:43.711Z,10.20
2017-10-02T05:25:11.633Z,10.20
2017-10-02T05:27:39.307Z,10.20
2017-10-02T05:30:07.044Z,10.20
2017-10-02T05:32:34.892Z,10.30
2017-10-02T05:35:02.640Z,10.30
2017-10-02T05:37:30.386Z,10.30
2017-10-02T05:39:58.211Z,10.30
2017-10-02T05:42:25.870Z,10.20
2017-10-02T05:44:53.530Z,10.20
2017-10-02T05:47:21.324Z,10.20
2017-10-02T05:49:49.026Z,10.20
2017-10-02T05:52:16.680Z,10.20
2017-10-02T05:54:44.416Z,10.20
2017-10-02T05:57:12.075Z,10.10
2017-10-02T05:59:40.126Z,10.10
2017-10-02T06:02:07.862Z,10.10
2017-10-02T06:04:35.527Z,10.20
2017-10-02T06:07:03.588Z,10.20
2017-10-02T06:09:31.682Z,10.10
2017-10-02T06:11:59.363Z,10.10
2017-10-02T06:14:27.026Z,10.20
2017-10-02T06:16:54.860Z,10.10
2017-10-02T06:19:22.607Z,10.10
2017-10-02T06:24:24.860Z,10.60
2017-10-02T06:26:52.516Z,10.60
2017-10-02T06:29:20.181Z,10.60
2017-10-02T06:31:47.895Z,10.50
2017-10-02T06:34:15.643Z,10.40
2017-10-02T06:36:43.390Z,10.40
2017-10-02T06:39:11.138Z,10.40
2017-10-02T06:41:38.795Z,10.50
2017-10-02T06:44:06.529Z,10.50
2017-10-02T06:46:34.339Z,10.50
2017-10-02T06:49:02.007Z,10.50
2017-10-02T06:51:29.671Z,10.60
2017-10-02T06:53:57.386Z,10.80
2017-10-02T06:56:25.046Z,10.90
2017-10-02T06:58:52.723Z,11.20
2017-10-02T07:01:20.514Z,11.50
2017-10-02T07:03:48.215Z,11.70
2017-10-02T07:06:15.871Z,11.70
2017-10-02T07:08:44.004Z,11.80
2017-10-02T07:11:11.667Z,11.80
2017-10-02T07:13:39.395Z,12.00
2017-10-02T07:16:07.100Z,12.40
2017-10-02T07:18:34.744Z,12.80
2017-10-02T07:21:02.383Z,13.20
2017-10-02T07:23:30.091Z,13.40
2017-10-02T07:25:57.734Z,13.70
2017-10-02T07:28:25.381Z,14.00
2017-10-02T07:30:53.134Z,14.30
2017-10-02T07:33:20.783Z,14.60
2017-10-02T07:35:48.889Z,14.90
2017-10-02T07:38:16.675Z,14.90
2017-10-02T07:40:44.321Z,15.20
2017-10-02T07:43:11.976Z,15.40
2017-10-02T07:45:39.680Z,15.10
2017-10-02T07:48:07.322Z,15.10
2017-10-02T07:50:34.991Z,15.30
2017-10-02T07:53:02.686Z,15.40
2017-10-02T07:55:30.331Z,15.40
2017-10-02T07:57:58.027Z,15.30
2017-10-02T08:00:25.876Z,15.20
2017-10-02T08:02:53.628Z,15.20
2017-10-02T08:05:21.279Z,15.20
2017-10-02T08:07:49.183Z,15.20
2017-10-02T08:10:16.870Z,15.20
2017-10-02T08:12:44.616Z,15.30
2017-10-02T08:15:12.466Z,15.20
2017-10-02T08:17:40.212Z,15.10
2017-10-02T08:20:07.960Z,15.10
2017-10-02T08:22:35.707Z,15.20
2017-10-02T08:25:03.380Z,15.30
2017-10-02T08:27:31.509Z,15.40
2017-10-02T08:29:59.239Z,15.40
2017-10-02T08:32:27.002Z,15.60
2017-10-02T08:34:54.778Z,15.50
2017-10-02T08:37:22.879Z,15.70
2017-10-02T08:39:50.555Z,15.60
2017-10-02T08:42:18.302Z,15.70
2017-10-02T08:44:46.049Z,15.80
2017-10-02T08:47:13.695Z,15.90
2017-10-02T08:49:41.440Z,16.10
2017-10-02T08:52:09.189Z,16.30
2017-10-02T08:54:36.936Z,16.40
2017-10-02T08:57:04.682Z,16.60
2017-10-02T08:59:32.387Z,16.80
2017-10-02T09:02:00.039Z,17.00
2017-10-02T09:04:27.686Z,17.30
2017-10-02T09:06:55.572Z,17.30
2017-10-02T09:09:23.318Z,17.20
2017-10-02T09:11:50.963Z,17.30
2017-10-02T09:14:18.776Z,17.30
2017-10-02T09:16:46.423Z,17.20
2017-10-02T09:19:14.063Z,16.90
2017-10-02T09:21:41.760Z,17.00
2017-10-02T09:24:09.416Z,16.90
2017-10-02T09:26:37.467Z,17.20
2017-10-02T09:29:05.578Z,17.50
2017-10-02T09:31:33.246Z,17.50
2017-10-02T09:34:00.899Z,17.80
2017-10-02T09:36:28.647Z,17.90
2017-10-02T09:38:56.296Z,18.10
2017-10-02T09:41:23.948Z,18.30
2017-10-02T09:43:51.780Z,18.50
2017-10-02T09:46:19.436Z,18.40
2017-10-02T09:48:47.087Z,18.50
2017-10-02T09:51:14.867Z,18.60
2017-10-02T09:53:44.247Z,18.70
2017-10-02T09:56:11.899Z,18.90
2017-10-02T09:58:39.608Z,19.00
2017-10-02T10:01:07.269Z,19.10
2017-10-02T10:03:35.397Z,19.20
2017-10-02T10:06:03.106Z,19.20
2017-10-02T10:08:30.754Z,19.20
2017-10-02T10:10:58.411Z,19.10
2017-10-02T10:13:26.160Z,19.10
2017-10-02T10:15:53.860Z,19.20
2017-10-02T10:18:21.986Z,19.40
2017-10-02T10:20:49.695Z,19.40
2017-10-02T10:23:17.342Z,19.40
2017-10-02T10:25:45.027Z,19.40
2017-10-02T10:28:12.735Z,19.40
2017-10-02T10:30:40.394Z,19.40
2017-10-02T10:33:08.043Z,19.40
2017-10-02T10:35:35.750Z,19.50
2017-10-02T10:38:03.417Z,19.60
2017-10-02T10:40:31.065Z,19.60
2017-10-02T10:42:58.780Z,19.70
2017-10-02T10:45:26.818Z,19.50
2017-10-02T10:47:54.452Z,19.60
2017-10-02T10:50:22.194Z,19.50
2017-10-02T10:52:49.846Z,19.50
2017-10-02T10:55:17.581Z,19.70
2017-10-02T10:57:45.279Z,20.00
2017-10-02T11:00:12.983Z,20.30
2017-10-02T11:02:40.622Z,20.60
2017-10-02T11:05:08.364Z,20.90
2017-10-02T11:07:36.111Z,21.10
2017-10-02T11:10:03.787Z,21.00
2017-10-02T11:12:31.899Z,20.80
2017-10-02T11:14:59.564Z,20.80
2017-10-02T11:17:27.305Z,20.70
2017-10-02T11:19:55.026Z,20.50
2017-10-02T11:22:22.700Z,20.30
2017-10-02T11:24:50.390Z,20.10
2017-10-02T11:27:18.139Z,20.10
2017-10-02T11:29:45.788Z,20.10
2017-10-02T11:32:13.484Z,20.00
2017-10-02T11:34:41.229Z,19.90
2017-10-02T11:37:08.889Z,19.70
2017-10-02T11:39:36.623Z,19.60
2017-10-02T11:42:04.368Z,19.50
2017-10-02T11:44:32.219Z,19.50
2017-10-02T11:46:59.915Z,19.50
2017-10-02T11:49:27.693Z,19.50
2017-10-02T11:51:55.374Z,19.60
2017-10-02T11:54:23.035Z,19.60
2017-10-02T11:56:51.143Z,19.80
2017-10-02T11:59:18.808Z,19.80
2017-10-02T12:01:46.463Z,19.90
2017-10-02T12:04:14.183Z,19.90
2017-10-02T12:06:41.841Z,20.00
2017-10-02T12:09:09.555Z,20.00
2017-10-02T12:11:37.299Z,20.00
2017-10-02T12:14:04.999Z,20.00
2017-10-02T12:16:32.648Z,19.90
2017-10-02T12:19:00.352Z,19.90
2017-10-02T12:21:28.032Z,19.80
2017-10-02T12:23:55.684Z,19.90
2017-10-02T12:26:23.518Z,19.90
2017-10-02T12:28:51.160Z,20.00
2017-10-02T12:31:18.810Z,20.00
2017-10-02T12:33:46.656Z,20.10
2017-10-02T12:36:14.404Z,20.10
2017-10-02T12:38:42.058Z,20.10
2017-10-02T12:41:09.761Z,20.20
2017-10-02T12:43:37.432Z,20.30
2017-10-02T12:46:05.077Z,20.20
2017-10-02T12:48:32.964Z,20.20
2017-10-02T12:51:01.003Z,20.30
2017-10-02T12:53:28.718Z,20.30
2017-10-02T12:55:56.417Z,20.30
2017-10-02T12:58:24.463Z,20.40
2017-10-02T13:00:52.102Z,20.50
2017-10-02T13:03:19.821Z,20.50
2017-10-02T13:05:47.467Z,20.50
2017-10-02T13:08:15.117Z,20.60
2017-10-02T13:10:42.870Z,20.70
2017-10-02T13:13:10.521Z,20.70
2017-10-02T13:15:38.259Z,20.70
2017-10-02T13:18:06.007Z,20.70
2017-10-02T13:20:33.655Z,20.80
2017-10-02T13:23:01.305Z,20.90
2017-10-02T13:25:29.215Z,20.90
2017-10-02T13:27:56.855Z,20.80
2017-10-02T13:30:24.495Z,20.80
2017-10-02T13:32:52.203Z,20.70
2017-10-02T13:35:19.931Z,20.70
2017-10-02T13:37:47.680Z,20.60
2017-10-02T13:40:15.367Z,20.60
2017-10-02T13:42:43.023Z,20.50
2017-10-02T13:45:10.679Z,20.50
2017-10-02T13:47:38.379Z,20.50
2017-10-02T13:50:06.092Z,20.30
2017-10-02T13:52:33.752Z,20.20
2017-10-02T13:55:01.459Z,20.10
2017-10-02T13:57:29.112Z,20.00
2017-10-02T13:59:56.759Z,20.00
2017-10-02T14:02:24.471Z,20.00
2017-10-02T14:04:52.594Z,19.90
2017-10-02T14:07:20.278Z,19.90
2017-10-02T14:09:48.404Z,19.70
2017-10-02T14:12:16.099Z,19.70
2017-10-02T14:14:43.748Z,19.60
2017-10-02T14:17:11.535Z,19.60
2017-10-02T14:19:39.190Z,19.50
2017-10-02T14:22:06.831Z,19.40
2017-10-02T14:24:34.522Z,19.30
2017-10-02T14:27:02.167Z,19.30
2017-10-02T14:29:29.818Z,19.30
2017-10-02T14:31:57.521Z,19.20
2017-10-02T14:34:25.219Z,19.10
2017-10-02T14:36:53.330Z,18.80
2017-10-02T14:39:21.035Z,18.80
2017-10-02T14:41:48.779Z,18.80
2017-10-02T14:44:16.431Z,18.70
2017-10-02T14:46:44.462Z,18.60
2017-10-02T14:49:12.174Z,18.60
2017-10-02T14:51:40.243Z,18.40
2017-10-02T14:54:08.450Z,18.40
2017-10-02T14:56:36.096Z,18.30
2017-10-02T14:59:03.853Z,18.30
2017-10-02T15:01:31.565Z,18.20
2017-10-02T15:03:59.220Z,18.20
2017-10-02T15:06:26.871Z,18.10
2017-10-02T15:08:54.640Z,18.10
2017-10-02T15:11:22.291Z,18.10
2017-10-02T15:13:50.032Z,18.00
2017-10-02T15:16:17.777Z,17.90
2017-10-02T15:18:45.419Z,17.80
2017-10-02T15:21:13.092Z,17.60
2017-10-02T15:23:41.183Z,17.30
2017-10-02T15:26:08.862Z,17.20
2017-10-02T15:28:36.617Z,17.10
2017-10-02T15:31:04.334Z,17.00
2017-10-02T15:33:32.004Z,16.90
2017-10-02T15:35:59.663Z,16.80
2017-10-02T15:38:27.359Z,16.70
2017-10-02T15:40:55.003Z,16.60
2017-10-02T15:43:22.702Z,16.50
2017-10-02T15:45:50.407Z,16.40
2017-10-02T15:48:18.065Z,16.40
2017-10-02T15:50:45.731Z,16.40
2017-10-02T15:53:13.477Z,16.30
2017-10-02T15:55:41.225Z,16.30
2017-10-02T15:58:08.877Z,16.30
2017-10-02T16:00:36.606Z,16.30
2017-10-02T16:03:04.364Z,16.30
2017-10-02T16:05:32.024Z,16.20
2017-10-02T16:07:59.842Z,16.20
2017-10-02T16:10:27.502Z,16.20
2017-10-02T16:12:55.253Z,16.20
2017-10-02T16:15:23.077Z,16.20
2017-10-02T16:17:50.746Z,16.20
2017-10-02T16:20:18.397Z,16.20
2017-10-02T16:22:46.095Z,16.10
2017-10-02T16:25:13.783Z,16.10
2017-10-02T16:27:41.433Z,16.10
2017-10-02T16:30:09.278Z,16.10
2017-10-02T16:32:36.931Z,16.10
2017-10-02T16:35:04.582Z,16.00
2017-10-02T16:37:32.313Z,15.90
2017-10-02T16:39:59.968Z,15.90
2017-10-02T16:42:27.616Z,15.90
2017-10-02T16:44:55.355Z,15.90
2017-10-02T16:47:23.101Z,15.90
2017-10-02T16:49:50.848Z,15.80
2017-10-02T16:52:18.563Z,15.80
2017-10-02T16:54:46.240Z,15.70
2017-10-02T16:57:13.987Z,15.70
2017-10-02T16:59:41.708Z,15.70
2017-10-02T17:02:09.382Z,15.70
2017-10-02T17:04:37.127Z,15.70
2017-10-02T17:07:05.079Z,15.80
2017-10-02T17:09:32.825Z,15.80
2017-10-02T17:12:00.572Z,15.80
2017-10-02T17:14:28.422Z,15.80
2017-10-02T17:16:56.122Z,15.70
2017-10-02T17:19:23.767Z,15.70
2017-10-02T17:21:51.655Z,15.60
2017-10-02T17:24:19.303Z,15.50
2017-10-02T17:26:47.060Z,15.50
2017-10-02T17:29:14.771Z,15.50
2017-10-02T17:31:42.419Z,15.50
2017-10-02T17:34:10.095Z,15.50
2017-10-02T17:36:37.842Z,15.40
2017-10-02T17:39:05.510Z,15.40
2017-10-02T17:41:33.554Z,15.40
2017-10-02T17:44:01.268Z,15.40
2017-10-02T17:46:28.915Z,15.30
2017-10-02T17:48:56.559Z,15.30
2017-10-02T17:51:24.533Z,15.20
2017-10-02T17:53:52.281Z,15.20
2017-10-02T17:56:20.028Z,15.30
2017-10-02T17:58:47.729Z,15.30
2017-10-02T18:01:15.375Z,15.30
2017-10-02T18:03:43.019Z,15.40
2017-10-02T18:06:10.746Z,15.30
2017-10-02T18:08:38.427Z,15.30
2017-10-02T18:11:06.075Z,15.30
2017-10-02T18:13:33.774Z,15.30
2017-10-02T18:16:01.903Z,15.20
2017-10-02T18:18:29.649Z,15.20
2017-10-02T18:20:57.355Z,15.20
2017-10-02T18:23:25.019Z,15.20
2017-10-02T18:25:52.667Z,15.20
2017-10-02T18:28:20.373Z,15.10
2017-10-02T18:30:48.491Z,15.10
2017-10-02T18:33:16.143Z,15.10
2017-10-02T18:35:43.984Z,15.10
2017-10-02T18:38:11.642Z,15.10
2017-10-02T18:40:39.376Z,15.00
2017-10-02T18:43:07.183Z,15.00
2017-10-02T18:45:34.852Z,15.00
2017-10-02T18:48:03.745Z,15.00
2017-10-02T18:50:31.466Z,15.00
2017-10-02T18:53:00.380Z,15.10
2017-10-02T18:55:28.298Z,15.10
2017-10-02T18:57:56.066Z,15.00
2017-10-02T19:00:23.814Z,15.10
2017-10-02T19:02:51.560Z,15.00
2017-10-02T19:05:19.258Z,15.00
2017-10-02T19:07:48.079Z,15.00
2017-10-02T19:10:15.826Z,15.00
2017-10-02T19:12:43.536Z,14.90
2017-10-02T19:15:11.187Z,14.80
2017-10-02T19:17:38.835Z,14.80
2017-10-02T19:20:07.327Z,14.80
2017-10-02T19:22:35.074Z,14.70
2017-10-02T19:25:02.821Z,14.70
2017-10-02T19:27:30.571Z,14.80
2017-10-02T19:29:58.219Z,14.80
2017-10-02T19:32:26.271Z,14.70
2017-10-02T19:34:54.058Z,14.50
2017-10-02T19:37:24.633Z,14.30
2017-10-02T19:39:52.355Z,14.30
2017-10-02T19:42:20.129Z,14.30
2017-10-02T19:44:48.731Z,14.20
2017-10-02T19:47:17.879Z,14.30
2017-10-02T19:49:45.722Z,14.30
2017-10-02T19:52:13.455Z,14.30
2017-10-02T19:54:41.113Z,14.30
2017-10-02T19:57:09.654Z,14.30
2017-10-02T19:59:37.307Z,14.40
2017-10-02T20:02:05.073Z,14.30
2017-10-02T20:04:32.953Z,14.40
2017-10-02T20:07:01.182Z,14.40
2017-10-02T20:09:28.929Z,14.40
2017-10-02T20:11:57.802Z,14.40
2017-10-02T20:14:25.552Z,14.30
2017-10-02T20:16:53.300Z,14.30
2017-10-02T20:19:21.098Z,14.30
2017-10-02T20:21:48.754Z,14.30
2017-10-02T20:24:16.411Z,14.30
2017-10-02T20:26:44.186Z,14.30
2017-10-02T20:29:11.831Z,14.30
2017-10-02T20:31:39.487Z,14.30
2017-10-02T20:34:07.179Z,14.20
2017-10-02T20:36:34.831Z,14.20
2017-10-02T20:39:02.512Z,14.30
2017-10-02T20:41:30.362Z,14.30
2017-10-02T20:43:58.108Z,14.40
2017-10-02T20:46:25.751Z,14.40
2017-10-02T20:48:53.452Z,14.40
2017-10-02T20:51:21.148Z,14.30
2017-10-02T20:53:48.816Z,14.30
2017-10-02T20:56:16.619Z,14.30
2017-10-02T20:58:44.263Z,14.40
2017-10-02T21:01:11.914Z,14.30
2017-10-02T21:03:39.615Z,14.30
2017-10-02T21:06:07.822Z,14.20
2017-10-02T21:08:35.583Z,14.30
2017-10-02T21:11:03.348Z,14.20
2017-10-02T21:13:31.076Z,14.20
2017-10-02T21:15:58.729Z,14.20
2017-10-02T21:18:27.303Z,14.30
2017-10-02T21:20:55.009Z,14.30
2017-10-02T21:23:22.763Z,14.30
2017-10-02T21:25:50.942Z,14.30
2017-10-02T21:28:18.792Z,14.40
2017-10-02T21:30:46.539Z,14.40
2017-10-02T21:33:14.392Z,14.40
2017-10-02T21:35:42.136Z,14.40
2017-10-02T21:38:09.885Z,14.40
2017-10-02T21:40:37.574Z,14.40
2017-10-02T21:43:05.218Z,14.40
2017-10-02T21:45:32.879Z,14.40
2017-10-02T21:48:00.769Z,14.30
2017-10-02T21:50:28.516Z,14.30
2017-10-02T21:52:56.264Z,14.40
2017-10-02T21:55:23.961Z,14.40
2017-10-02T21:57:51.658Z,14.40
2017-10-02T22:00:19.405Z,14.40
2017-10-02T22:02:47.152Z,14.40
2017-10-02T22:05:14.899Z,14.40
2017-10-02T22:07:42.647Z,14.50
2017-10-02T22:10:10.376Z,14.50
2017-10-02T22:12:38.151Z,14.50
2017-10-02T22:15:05.889Z,14.50
2017-10-02T22:17:33.597Z,14.50
2017-10-02T22:20:01.280Z,14.60
2017-10-02T22:22:29.027Z,14.60
2017-10-02T22:24:56.877Z,14.60
2017-10-02T22:27:24.586Z,14.60
2017-10-02T22:29:52.231Z,14.60
2017-10-02T22:32:20.019Z,14.60
2017-10-02T22:34:47.675Z,14.60
2017-10-02T22:37:15.319Z,14.60
2017-10-02T22:39:43.021Z,14.60
2017-10-02T22:42:10.700Z,14.60
2017-10-02T22:44:38.449Z,14.60
2017-10-02T22:47:06.158Z,14.60
2017-10-02T22:49:33.839Z,14.70
2017-10-02T22:52:01.490Z,14.70
2017-10-02T22:54:29.332Z,14.70
2017-10-02T22:56:57.081Z,14.70
2017-10-02T22:59:24.732Z,14.70
2017-10-02T23:01:52.434Z,14.70
2017-10-02T23:04:20.082Z,14.70
2017-10-02T23:06:47.766Z,14.70
2017-10-02T23:09:15.482Z,14.80
2017-10-02T23:11:43.131Z,14.80
2017-10-02T23:14:10.801Z,14.70
2017-10-02T23:16:38.510Z,14.70
2017-10-02T23:19:06.206Z,14.70
2017-10-02T23:21:33.943Z,14.70
2017-10-02T23:24:01.638Z,14.80
2017-10-02T23:26:29.332Z,14.70
2017-10-02T23:28:56.980Z,14.70
2017-10-02T23:31:24.734Z,14.70
2017-10-02T23:33:52.475Z,14.60
2017-10-02T23:36:20.147Z,14.60
2017-10-02T23:38:48.276Z,14.60
2017-10-02T23:41:15.928Z,14.60
2017-10-02T23:43:43.567Z,14.60
2017-10-02T23:46:11.415Z,14.50
2017-10-02T23:48:39.163Z,14.50
2017-10-02T23:51:06.909Z,14.50
2017-10-02T23:53:34.623Z,14.60
2017-10-02T23:56:02.271Z,14.60
2017-10-02T23:58:29.945Z,14.50
